JAGER13 KDYS-EGVA
Flight info
| Callsign | JAGER13 |
|---|---|
| Flight time | N/A |
| Altitude | 41000 |
| Route | ABI DCT ADM DCT MLC DCT STL DCT BVT DCT OTENS DCT SVM DCT RAKAP DCT YEE DCT ROSVO DCT ANCER N795B JANJO/M095F410 DCT 56N050W 58N040W 59N030W 58N020W DCT SUNOT/N0447F410 DCT MIMKU DCT QQ1 DCT VYL DCT WD2 DCT GIKNI DCT GST |
| Aircraft | CONC/H-VGDW/C |
Departure
| Time | 2026-05-08 07:27 |
|---|---|
| Airport | Dyess Air Force Base (KDYS) |
Arrival
| Time | N/A |
|---|---|
| Airport | RAF Fairford (EGVA) |
| Time | Latitude | Longitude | Altitude | Speed | Heading |
|---|---|---|---|---|---|
| 2026-05-08 06:59 | 32.41610 | -99.84749 | 1829 ft | 0 kts | 258° |
| 2026-05-08 07:16 | 32.41609 | -99.84751 | 1820 ft | 1 kts | 259° |
| 2026-05-08 07:16 | 32.41607 | -99.84763 | 1819 ft | 2 kts | 258° |
| 2026-05-08 07:16 | 32.41604 | -99.84784 | 1823 ft | 2 kts | 261° |
| 2026-05-08 07:16 | 32.41604 | -99.84792 | 1825 ft | 1 kts | 283° |
| 2026-05-08 07:17 | 32.41615 | -99.84810 | 1821 ft | 4 kts | 316° |
| 2026-05-08 07:17 | 32.41656 | -99.84829 | 1821 ft | 8 kts | 347° |
| 2026-05-08 07:17 | 32.41705 | -99.84839 | 1822 ft | 9 kts | 350° |
| 2026-05-08 07:17 | 32.41776 | -99.84856 | 1823 ft | 15 kts | 347° |
| 2026-05-08 07:18 | 32.41852 | -99.84873 | 1822 ft | 9 kts | 342° |
| 2026-05-08 07:18 | 32.41868 | -99.84896 | 1823 ft | 5 kts | 285° |
| 2026-05-08 07:18 | 32.41862 | -99.84961 | 1826 ft | 12 kts | 257° |
| 2026-05-08 07:18 | 32.41860 | -99.85006 | 1828 ft | 2 kts | 307° |
| 2026-05-08 07:19 | 32.41891 | -99.85027 | 1825 ft | 8 kts | 344° |
| 2026-05-08 07:19 | 32.41974 | -99.85046 | 1824 ft | 15 kts | 349° |
| 2026-05-08 07:19 | 32.42060 | -99.85066 | 1825 ft | 13 kts | 349° |
| 2026-05-08 07:19 | 32.42184 | -99.85095 | 1825 ft | 19 kts | 348° |
| 2026-05-08 07:20 | 32.42298 | -99.85122 | 1826 ft | 17 kts | 348° |
| 2026-05-08 07:20 | 32.42429 | -99.85152 | 1825 ft | 19 kts | 350° |
| 2026-05-08 07:20 | 32.42559 | -99.85180 | 1825 ft | 20 kts | 348° |
| 2026-05-08 07:20 | 32.42683 | -99.85211 | 1825 ft | 20 kts | 349° |
| 2026-05-08 07:21 | 32.42818 | -99.85242 | 1827 ft | 17 kts | 350° |
| 2026-05-08 07:21 | 32.42949 | -99.85272 | 1825 ft | 24 kts | 349° |
| 2026-05-08 07:21 | 32.43084 | -99.85304 | 1827 ft | 20 kts | 348° |
| 2026-05-08 07:21 | 32.43186 | -99.85330 | 1827 ft | 11 kts | 343° |
| 2026-05-08 07:22 | 32.43293 | -99.85370 | 1826 ft | 21 kts | 348° |
| 2026-05-08 07:22 | 32.43445 | -99.85403 | 1824 ft | 17 kts | 349° |
| 2026-05-08 07:22 | 32.43579 | -99.85435 | 1825 ft | 22 kts | 349° |
| 2026-05-08 07:22 | 32.43720 | -99.85467 | 1824 ft | 24 kts | 348° |
| 2026-05-08 07:23 | 32.43876 | -99.85507 | 1826 ft | 22 kts | 337° |
| 2026-05-08 07:23 | 32.43925 | -99.85631 | 1831 ft | 18 kts | 264° |
| 2026-05-08 07:23 | 32.43907 | -99.85746 | 1830 ft | 6 kts | 258° |
| 2026-05-08 07:23 | 32.43905 | -99.85758 | 1828 ft | 0 kts | 257° |
| 2026-05-08 07:25 | 32.43903 | -99.85771 | 1827 ft | 6 kts | 256° |
| 2026-05-08 07:25 | 32.43877 | -99.85862 | 1829 ft | 1 kts | 217° |
| 2026-05-08 07:26 | 32.43862 | -99.85870 | 1827 ft | 3 kts | 195° |
| 2026-05-08 07:26 | 32.43839 | -99.85869 | 1826 ft | 4 kts | 168° |
| 2026-05-08 07:26 | 32.43837 | -99.85869 | 1826 ft | 0 kts | 168° |
| 2026-05-08 07:27 | 32.43553 | -99.85803 | 1826 ft | 87 kts | 168° |
| 2026-05-08 07:27 | 32.42666 | -99.85597 | 1828 ft | 170 kts | 169° |
| 2026-05-08 07:27 | 32.41336 | -99.85270 | 2346 ft | 212 kts | 168° |
| 2026-05-08 07:27 | 32.39820 | -99.84888 | 3140 ft | 231 kts | 169° |
| 2026-05-08 07:28 | 32.38172 | -99.84459 | 3876 ft | 248 kts | 169° |
| 2026-05-08 07:28 | 32.36473 | -99.83997 | 4612 ft | 251 kts | 169° |
| 2026-05-08 07:28 | 32.34760 | -99.83511 | 5374 ft | 255 kts | 168° |
| 2026-05-08 07:28 | 32.33029 | -99.83039 | 6125 ft | 258 kts | 173° |
| 2026-05-08 07:29 | 32.31343 | -99.83580 | 6793 ft | 260 kts | 224° |
| 2026-05-08 07:29 | 32.30782 | -99.85555 | 7520 ft | 271 kts | 279° |
| 2026-05-08 07:29 | 32.31826 | -99.87362 | 8313 ft | 279 kts | 321° |
| 2026-05-08 07:29 | 32.33394 | -99.88692 | 9098 ft | 278 kts | 323° |
| 2026-05-08 07:30 | 32.35015 | -99.90050 | 9902 ft | 279 kts | 324° |
| 2026-05-08 07:30 | 32.38649 | -99.89798 | 11421 ft | 304 kts | 34° |
| 2026-05-08 07:30 | 32.40497 | -99.88486 | 12146 ft | 309 kts | 23° |
| 2026-05-08 07:31 | 32.42643 | -99.87777 | 12899 ft | 337 kts | 8° |
| 2026-05-08 07:31 | 32.45090 | -99.87152 | 13726 ft | 382 kts | 9° |
| 2026-05-08 07:31 | 32.47661 | -99.86102 | 14468 ft | 399 kts | 31° |
| 2026-05-08 07:31 | 32.49605 | -99.83713 | 15241 ft | 412 kts | 53° |
| 2026-05-08 07:32 | 32.51418 | -99.81032 | 15645 ft | 444 kts | 49° |
| 2026-05-08 07:32 | 32.53410 | -99.78157 | 15834 ft | 454 kts | 50° |
| 2026-05-08 07:32 | 32.55513 | -99.75056 | 15950 ft | 495 kts | 50° |
| 2026-05-08 07:32 | 32.57629 | -99.71901 | 16189 ft | 489 kts | 51° |
| 2026-05-08 07:33 | 32.59728 | -99.68763 | 16934 ft | 493 kts | 51° |
| 2026-05-08 07:33 | 32.61875 | -99.65540 | 17688 ft | 502 kts | 51° |
| 2026-05-08 07:33 | 32.64052 | -99.62264 | 18461 ft | 507 kts | 51° |
| 2026-05-08 07:33 | 32.66250 | -99.58950 | 19157 ft | 515 kts | 51° |
| 2026-05-08 07:34 | 32.68474 | -99.55588 | 19850 ft | 519 kts | 51° |
| 2026-05-08 07:34 | 32.70717 | -99.52194 | 20577 ft | 527 kts | 50° |
| 2026-05-08 07:34 | 32.72989 | -99.48753 | 21313 ft | 530 kts | 50° |
| 2026-05-08 07:34 | 32.75287 | -99.45274 | 22074 ft | 541 kts | 50° |
| 2026-05-08 07:35 | 32.77621 | -99.41757 | 22857 ft | 541 kts | 50° |
| 2026-05-08 07:35 | 32.79974 | -99.38212 | 23650 ft | 551 kts | 49° |
| 2026-05-08 07:35 | 32.82350 | -99.34617 | 24331 ft | 556 kts | 50° |
| 2026-05-08 07:35 | 32.84745 | -99.30977 | 25008 ft | 568 kts | 50° |
| 2026-05-08 07:36 | 32.87195 | -99.27228 | 25721 ft | 581 kts | 50° |
| 2026-05-08 07:36 | 32.89685 | -99.23406 | 26449 ft | 586 kts | 50° |
| 2026-05-08 07:36 | 32.92224 | -99.19508 | 27200 ft | 603 kts | 50° |
| 2026-05-08 07:36 | 32.94770 | -99.15600 | 27962 ft | 609 kts | 50° |
| 2026-05-08 07:37 | 32.97403 | -99.11568 | 28753 ft | 623 kts | 50° |
| 2026-05-08 07:37 | 33.00101 | -99.07437 | 29571 ft | 634 kts | 50° |
| 2026-05-08 07:37 | 33.02828 | -99.03260 | 30349 ft | 644 kts | 50° |
| 2026-05-08 07:37 | 33.05612 | -98.98990 | 31063 ft | 656 kts | 50° |
| 2026-05-08 07:38 | 33.07446 | -98.96167 | 31539 ft | 639 kts | 50° |
| 2026-05-08 07:38 | 33.11088 | -98.90558 | 32541 ft | 653 kts | 50° |
| 2026-05-08 07:38 | 33.13906 | -98.86210 | 33328 ft | 667 kts | 51° |
| 2026-05-08 07:38 | 33.15784 | -98.83307 | 33851 ft | 663 kts | 51° |
| 2026-05-08 07:39 | 33.18585 | -98.78973 | 34578 ft | 662 kts | 51° |
| 2026-05-08 07:39 | 33.21422 | -98.74582 | 35297 ft | 668 kts | 51° |
| 2026-05-08 07:39 | 33.24227 | -98.70235 | 36030 ft | 662 kts | 51° |
| 2026-05-08 07:39 | 33.27065 | -98.65839 | 36792 ft | 671 kts | 51° |
| 2026-05-08 07:40 | 33.29846 | -98.61518 | 37573 ft | 637 kts | 51° |
| 2026-05-08 07:40 | 33.32550 | -98.57320 | 38390 ft | 639 kts | 50° |
| 2026-05-08 07:40 | 33.35269 | -98.53092 | 39124 ft | 646 kts | 51° |
| 2026-05-08 07:40 | 33.38027 | -98.48794 | 39826 ft | 654 kts | 51° |
| 2026-05-08 07:41 | 33.40824 | -98.44431 | 40451 ft | 667 kts | 51° |
| 2026-05-08 07:41 | 33.43599 | -98.40092 | 40742 ft | 654 kts | 51° |
| 2026-05-08 07:41 | 33.46323 | -98.35826 | 40879 ft | 636 kts | 50° |
| 2026-05-08 07:42 | 33.51769 | -98.27299 | 40984 ft | 642 kts | 51° |
| 2026-05-08 07:42 | 33.57166 | -98.18830 | 41010 ft | 645 kts | 50° |
| 2026-05-08 07:43 | 33.62589 | -98.10297 | 41020 ft | 642 kts | 50° |
| 2026-05-08 07:43 | 33.68013 | -98.01738 | 41016 ft | 641 kts | 51° |
| 2026-05-08 07:44 | 33.73423 | -97.93184 | 41027 ft | 645 kts | 51° |
| 2026-05-08 07:44 | 33.78800 | -97.84663 | 41029 ft | 642 kts | 51° |
| 2026-05-08 07:45 | 33.84210 | -97.76070 | 41029 ft | 643 kts | 51° |
| 2026-05-08 07:45 | 33.89578 | -97.67523 | 41033 ft | 645 kts | 51° |
| 2026-05-08 07:46 | 33.95495 | -97.58075 | 41031 ft | 642 kts | 51° |
| 2026-05-08 07:46 | 34.00868 | -97.49478 | 41032 ft | 643 kts | 50° |
| 2026-05-08 07:47 | 34.06240 | -97.40863 | 41034 ft | 644 kts | 51° |
| 2026-05-08 07:47 | 34.11615 | -97.32220 | 41034 ft | 641 kts | 50° |
| 2026-05-08 07:48 | 34.16938 | -97.23640 | 41040 ft | 644 kts | 51° |
| 2026-05-08 07:48 | 34.21944 | -97.14684 | 41052 ft | 646 kts | 59° |
| 2026-05-08 07:49 | 34.26474 | -97.05264 | 41042 ft | 645 kts | 59° |
| 2026-05-08 07:49 | 34.30937 | -96.95827 | 41037 ft | 649 kts | 59° |
| 2026-05-08 07:50 | 34.35388 | -96.86342 | 41043 ft | 647 kts | 59° |
| 2026-05-08 07:50 | 34.39839 | -96.76839 | 41037 ft | 647 kts | 59° |
| 2026-05-08 07:51 | 34.44226 | -96.67372 | 41035 ft | 650 kts | 59° |
| 2026-05-08 07:51 | 34.48614 | -96.57836 | 41033 ft | 647 kts | 59° |
| 2026-05-08 07:52 | 34.52993 | -96.48326 | 41032 ft | 648 kts | 59° |
| 2026-05-08 07:52 | 34.57384 | -96.38794 | 41032 ft | 649 kts | 59° |
| 2026-05-08 07:53 | 34.61777 | -96.29224 | 41030 ft | 646 kts | 59° |
| 2026-05-08 07:53 | 34.66153 | -96.19644 | 41026 ft | 649 kts | 59° |
| 2026-05-08 07:54 | 34.70516 | -96.10068 | 41036 ft | 649 kts | 59° |
| 2026-05-08 07:54 | 34.74883 | -96.00464 | 41035 ft | 647 kts | 59° |
| 2026-05-08 07:55 | 34.79236 | -95.90868 | 41050 ft | 650 kts | 59° |
| 2026-05-08 07:55 | 34.83595 | -95.81269 | 41047 ft | 647 kts | 57° |
| 2026-05-08 07:55 | 34.86191 | -95.76832 | 41038 ft | 640 kts | 41° |
| 2026-05-08 07:56 | 34.89337 | -95.73020 | 41059 ft | 638 kts | 41° |
| 2026-05-08 07:56 | 34.95505 | -95.65375 | 41050 ft | 636 kts | 40° |
| 2026-05-08 07:57 | 35.01748 | -95.57663 | 41042 ft | 637 kts | 40° |
| 2026-05-08 07:57 | 35.07984 | -95.49984 | 41035 ft | 637 kts | 40° |
| 2026-05-08 07:58 | 35.14239 | -95.42305 | 41030 ft | 635 kts | 39° |
| 2026-05-08 07:58 | 35.20435 | -95.34678 | 41033 ft | 638 kts | 40° |
| 2026-05-08 07:59 | 35.26657 | -95.26970 | 41032 ft | 635 kts | 40° |
| 2026-05-08 07:59 | 35.32873 | -95.19248 | 41022 ft | 636 kts | 40° |
| 2026-05-08 08:00 | 35.39076 | -95.11539 | 41033 ft | 637 kts | 40° |
| 2026-05-08 08:00 | 35.44251 | -95.05099 | 41020 ft | 634 kts | 40° |
| 2026-05-08 08:01 | 35.50464 | -94.97347 | 41044 ft | 638 kts | 40° |
| 2026-05-08 08:01 | 35.56659 | -94.89592 | 41050 ft | 636 kts | 40° |
| 2026-05-08 08:02 | 35.62814 | -94.81869 | 41044 ft | 633 kts | 40° |
| 2026-05-08 08:02 | 35.68998 | -94.74097 | 41052 ft | 637 kts | 40° |
| 2026-05-08 08:03 | 35.75176 | -94.66312 | 41044 ft | 635 kts | 40° |
| 2026-05-08 08:03 | 35.81361 | -94.58501 | 41038 ft | 635 kts | 40° |
| 2026-05-08 08:04 | 35.87480 | -94.50754 | 41045 ft | 637 kts | 40° |
| 2026-05-08 08:04 | 35.93649 | -94.42924 | 41043 ft | 634 kts | 40° |
| 2026-05-08 08:05 | 35.99808 | -94.35089 | 41042 ft | 635 kts | 40° |
| 2026-05-08 08:05 | 36.05954 | -94.27253 | 41043 ft | 636 kts | 40° |
| 2026-05-08 08:06 | 36.12102 | -94.19393 | 41043 ft | 633 kts | 40° |
| 2026-05-08 08:06 | 36.18211 | -94.11567 | 41045 ft | 635 kts | 40° |
| 2026-05-08 08:07 | 36.24334 | -94.03702 | 41041 ft | 634 kts | 40° |
| 2026-05-08 08:07 | 36.30468 | -93.95805 | 41046 ft | 633 kts | 40° |
| 2026-05-08 08:08 | 36.36577 | -93.87922 | 41043 ft | 635 kts | 40° |
| 2026-05-08 08:08 | 36.42681 | -93.80023 | 41046 ft | 632 kts | 40° |
| 2026-05-08 08:09 | 36.48747 | -93.72158 | 41039 ft | 634 kts | 40° |
| 2026-05-08 08:09 | 36.54838 | -93.64240 | 41034 ft | 632 kts | 40° |
| 2026-05-08 08:10 | 36.60930 | -93.56301 | 41028 ft | 632 kts | 40° |
| 2026-05-08 08:10 | 36.66955 | -93.48431 | 41029 ft | 634 kts | 40° |
| 2026-05-08 08:11 | 36.73020 | -93.40488 | 41031 ft | 630 kts | 40° |
| 2026-05-08 08:11 | 36.79080 | -93.32533 | 41027 ft | 632 kts | 40° |
| 2026-05-08 08:12 | 36.85131 | -93.24572 | 41027 ft | 632 kts | 40° |
| 2026-05-08 08:12 | 36.91139 | -93.16643 | 41026 ft | 629 kts | 40° |
| 2026-05-08 08:13 | 36.97179 | -93.08657 | 41022 ft | 631 kts | 40° |
| 2026-05-08 08:13 | 37.03196 | -93.00681 | 41027 ft | 630 kts | 40° |
| 2026-05-08 08:14 | 37.09205 | -92.92693 | 41008 ft | 628 kts | 40° |
| 2026-05-08 08:14 | 37.15173 | -92.84744 | 41019 ft | 631 kts | 40° |
| 2026-05-08 08:15 | 37.21163 | -92.76743 | 41009 ft | 628 kts | 40° |
| 2026-05-08 08:15 | 37.27161 | -92.68712 | 41010 ft | 627 kts | 40° |
| 2026-05-08 08:16 | 37.33123 | -92.60711 | 41010 ft | 629 kts | 40° |
| 2026-05-08 08:16 | 37.39045 | -92.52742 | 41013 ft | 625 kts | 40° |
| 2026-05-08 08:17 | 37.45002 | -92.44706 | 41011 ft | 625 kts | 40° |
| 2026-05-08 08:17 | 37.50937 | -92.36681 | 41010 ft | 627 kts | 40° |
| 2026-05-08 08:18 | 37.56862 | -92.28647 | 40992 ft | 623 kts | 40° |
| 2026-05-08 08:18 | 37.62747 | -92.20649 | 40989 ft | 624 kts | 40° |
| 2026-05-08 08:19 | 37.68642 | -92.12617 | 40987 ft | 625 kts | 40° |
| 2026-05-08 08:19 | 37.74505 | -92.04606 | 40985 ft | 621 kts | 40° |
| 2026-05-08 08:20 | 37.80394 | -91.96543 | 40992 ft | 623 kts | 40° |
| 2026-05-08 08:20 | 37.86282 | -91.88463 | 41000 ft | 624 kts | 40° |
| 2026-05-08 08:21 | 37.92110 | -91.80439 | 41011 ft | 620 kts | 40° |
| 2026-05-08 08:21 | 37.97962 | -91.72366 | 41012 ft | 622 kts | 41° |
| 2026-05-08 08:22 | 38.03794 | -91.64297 | 41012 ft | 622 kts | 41° |
| 2026-05-08 08:22 | 38.09636 | -91.56195 | 41010 ft | 618 kts | 41° |
| 2026-05-08 08:23 | 38.15436 | -91.48132 | 41010 ft | 620 kts | 41° |
| 2026-05-08 08:23 | 38.21234 | -91.40050 | 41024 ft | 619 kts | 41° |
| 2026-05-08 08:24 | 38.27033 | -91.31944 | 41023 ft | 616 kts | 41° |
| 2026-05-08 08:24 | 38.32825 | -91.23831 | 41022 ft | 619 kts | 41° |
| 2026-05-08 08:25 | 38.38557 | -91.15780 | 41022 ft | 617 kts | 41° |
| 2026-05-08 08:25 | 38.44337 | -91.07640 | 40991 ft | 615 kts | 41° |
| 2026-05-08 08:26 | 38.50087 | -90.99523 | 40990 ft | 618 kts | 41° |
| 2026-05-08 08:26 | 38.55814 | -90.91414 | 40989 ft | 614 kts | 41° |
| 2026-05-08 08:27 | 38.61557 | -90.83264 | 40991 ft | 615 kts | 41° |
| 2026-05-08 08:27 | 38.67239 | -90.75181 | 40990 ft | 616 kts | 41° |
| 2026-05-08 08:28 | 38.72959 | -90.67019 | 40986 ft | 613 kts | 41° |
| 2026-05-08 08:28 | 38.78674 | -90.58848 | 40988 ft | 615 kts | 41° |
| 2026-05-08 08:29 | 38.84318 | -90.50731 | 40984 ft | 615 kts | 43° |
| 2026-05-08 08:29 | 38.89343 | -90.41694 | 40986 ft | 622 kts | 50° |
| 2026-05-08 08:30 | 38.94214 | -90.32524 | 40981 ft | 623 kts | 50° |
| 2026-05-08 08:30 | 39.01485 | -90.18666 | 40996 ft | 621 kts | 51° |
| 2026-05-08 08:31 | 39.06292 | -90.09451 | 40993 ft | 622 kts | 51° |
| 2026-05-08 08:31 | 39.11081 | -90.00166 | 40994 ft | 623 kts | 51° |
| 2026-05-08 08:32 | 39.15834 | -89.90902 | 40995 ft | 620 kts | 51° |
| 2026-05-08 08:32 | 39.20613 | -89.81602 | 40996 ft | 623 kts | 51° |
| 2026-05-08 08:33 | 39.25386 | -89.72311 | 40996 ft | 621 kts | 51° |
| 2026-05-08 08:33 | 39.30149 | -89.62994 | 40990 ft | 619 kts | 51° |
| 2026-05-08 08:34 | 39.34871 | -89.53716 | 40989 ft | 622 kts | 51° |
| 2026-05-08 08:34 | 39.39604 | -89.44389 | 40986 ft | 619 kts | 51° |
| 2026-05-08 08:35 | 39.44312 | -89.35097 | 40972 ft | 619 kts | 51° |
| 2026-05-08 08:35 | 39.49032 | -89.25758 | 40975 ft | 621 kts | 52° |
| 2026-05-08 08:36 | 39.53745 | -89.16394 | 40979 ft | 618 kts | 52° |
| 2026-05-08 08:36 | 39.58449 | -89.07021 | 40986 ft | 619 kts | 52° |
| 2026-05-08 08:37 | 39.63136 | -88.97656 | 40982 ft | 620 kts | 52° |
| 2026-05-08 08:37 | 39.67788 | -88.88336 | 40978 ft | 616 kts | 52° |
| 2026-05-08 08:38 | 39.72451 | -88.78967 | 40969 ft | 619 kts | 52° |
| 2026-05-08 08:38 | 39.77114 | -88.69567 | 40975 ft | 618 kts | 52° |
| 2026-05-08 08:39 | 39.81766 | -88.60160 | 40970 ft | 616 kts | 52° |
| 2026-05-08 08:39 | 39.86382 | -88.50802 | 40978 ft | 618 kts | 52° |
| 2026-05-08 08:40 | 39.91008 | -88.41391 | 40983 ft | 615 kts | 52° |
| 2026-05-08 08:40 | 39.95633 | -88.31957 | 40981 ft | 615 kts | 52° |
| 2026-05-08 08:41 | 40.00233 | -88.22546 | 40979 ft | 617 kts | 52° |
| 2026-05-08 08:41 | 40.04832 | -88.13106 | 40977 ft | 614 kts | 52° |
| 2026-05-08 08:42 | 40.09398 | -88.03708 | 40975 ft | 616 kts | 52° |
| 2026-05-08 08:42 | 40.13975 | -87.94257 | 40974 ft | 616 kts | 52° |
| 2026-05-08 08:43 | 40.18548 | -87.84786 | 40985 ft | 613 kts | 53° |
| 2026-05-08 08:43 | 40.23107 | -87.75320 | 40989 ft | 616 kts | 53° |
| 2026-05-08 08:44 | 40.27636 | -87.65881 | 40990 ft | 614 kts | 53° |
| 2026-05-08 08:44 | 40.32188 | -87.56367 | 40986 ft | 613 kts | 53° |
| 2026-05-08 08:45 | 40.36724 | -87.46861 | 40986 ft | 616 kts | 53° |
| 2026-05-08 08:45 | 40.41218 | -87.37408 | 40985 ft | 613 kts | 53° |
| 2026-05-08 08:46 | 40.45734 | -87.27885 | 40986 ft | 613 kts | 53° |
| 2026-05-08 08:46 | 40.49475 | -87.19974 | 40986 ft | 614 kts | 53° |
| 2026-05-08 08:47 | 40.53971 | -87.10417 | 40988 ft | 612 kts | 54° |
| 2026-05-08 08:47 | 40.58634 | -87.01027 | 40989 ft | 613 kts | 51° |
| 2026-05-08 08:48 | 40.63298 | -86.91668 | 40990 ft | 612 kts | 51° |
| 2026-05-08 08:48 | 40.67941 | -86.82342 | 40986 ft | 609 kts | 51° |
| 2026-05-08 08:49 | 40.72635 | -86.72966 | 40992 ft | 613 kts | 51° |
| 2026-05-08 08:49 | 40.77316 | -86.63597 | 40990 ft | 611 kts | 51° |
| 2026-05-08 08:50 | 40.81951 | -86.54256 | 40993 ft | 610 kts | 52° |
| 2026-05-08 08:50 | 40.86596 | -86.44847 | 40995 ft | 613 kts | 52° |
| 2026-05-08 08:51 | 40.91236 | -86.35432 | 40997 ft | 611 kts | 52° |
| 2026-05-08 08:51 | 40.95882 | -86.25992 | 40971 ft | 610 kts | 52° |
| 2026-05-08 08:52 | 41.00483 | -86.16615 | 40970 ft | 612 kts | 52° |
| 2026-05-08 08:52 | 41.05095 | -86.07173 | 40972 ft | 610 kts | 52° |
| 2026-05-08 08:53 | 41.09713 | -85.97689 | 40972 ft | 609 kts | 52° |
| 2026-05-08 08:53 | 41.14306 | -85.88234 | 40972 ft | 612 kts | 52° |
| 2026-05-08 08:54 | 41.18869 | -85.78812 | 40972 ft | 608 kts | 52° |
| 2026-05-08 08:54 | 41.23450 | -85.69325 | 40969 ft | 609 kts | 52° |
| 2026-05-08 08:55 | 41.28019 | -85.59829 | 40970 ft | 610 kts | 52° |
| 2026-05-08 08:55 | 41.32549 | -85.50382 | 40970 ft | 607 kts | 52° |
| 2026-05-08 08:56 | 41.37096 | -85.40879 | 40965 ft | 609 kts | 52° |
| 2026-05-08 08:56 | 41.41622 | -85.31384 | 40965 ft | 608 kts | 52° |
| 2026-05-08 08:57 | 41.46154 | -85.21846 | 40964 ft | 606 kts | 52° |
| 2026-05-08 08:57 | 41.50670 | -85.12315 | 40955 ft | 608 kts | 52° |
| 2026-05-08 08:58 | 41.55167 | -85.02795 | 40952 ft | 606 kts | 52° |
| 2026-05-08 08:58 | 41.59650 | -84.93274 | 40953 ft | 605 kts | 53° |
| 2026-05-08 08:59 | 41.64121 | -84.83748 | 40958 ft | 607 kts | 53° |
| 2026-05-08 08:59 | 41.69125 | -84.74812 | 40971 ft | 597 kts | 45° |
| 2026-05-08 09:00 | 41.74398 | -84.66300 | 40962 ft | 595 kts | 44° |
| 2026-05-08 09:00 | 41.79741 | -84.57782 | 40944 ft | 597 kts | 44° |
| 2026-05-08 09:01 | 41.85062 | -84.49295 | 40942 ft | 595 kts | 44° |
| 2026-05-08 09:01 | 41.90398 | -84.40759 | 40944 ft | 594 kts | 44° |
| 2026-05-08 09:02 | 41.95725 | -84.32280 | 40956 ft | 596 kts | 44° |
| 2026-05-08 09:02 | 42.01029 | -84.23837 | 40972 ft | 593 kts | 44° |
| 2026-05-08 09:03 | 42.06353 | -84.15313 | 40973 ft | 594 kts | 44° |
| 2026-05-08 09:03 | 42.11651 | -84.06783 | 40970 ft | 594 kts | 44° |
| 2026-05-08 09:04 | 42.16945 | -83.98238 | 40959 ft | 592 kts | 44° |
| 2026-05-08 09:04 | 42.22246 | -83.89678 | 40946 ft | 594 kts | 44° |
| 2026-05-08 09:05 | 42.27483 | -83.81196 | 40954 ft | 593 kts | 44° |
| 2026-05-08 09:05 | 42.32764 | -83.72610 | 40955 ft | 592 kts | 45° |
| 2026-05-08 09:06 | 42.38037 | -83.64009 | 40963 ft | 594 kts | 45° |
| 2026-05-08 09:06 | 42.43597 | -83.55963 | 40962 ft | 588 kts | 40° |
| 2026-05-08 09:07 | 42.49346 | -83.48066 | 40959 ft | 585 kts | 39° |
| 2026-05-08 09:07 | 42.55112 | -83.40206 | 40959 ft | 588 kts | 39° |
| 2026-05-08 09:08 | 42.60820 | -83.32403 | 40958 ft | 587 kts | 39° |
| 2026-05-08 09:08 | 42.66569 | -83.24532 | 40952 ft | 585 kts | 39° |
| 2026-05-08 09:09 | 42.72345 | -83.16667 | 40955 ft | 587 kts | 39° |
| 2026-05-08 09:09 | 42.78104 | -83.08811 | 40953 ft | 585 kts | 39° |
| 2026-05-08 09:10 | 42.83824 | -83.00959 | 40941 ft | 585 kts | 40° |
| 2026-05-08 09:10 | 42.89555 | -82.93055 | 40945 ft | 588 kts | 40° |
| 2026-05-08 09:11 | 42.95289 | -82.85133 | 40954 ft | 585 kts | 40° |
| 2026-05-08 09:11 | 43.00990 | -82.77248 | 40953 ft | 585 kts | 40° |
| 2026-05-08 09:12 | 43.06711 | -82.69314 | 40953 ft | 588 kts | 40° |
| 2026-05-08 09:12 | 43.12444 | -82.61328 | 40953 ft | 585 kts | 40° |
| 2026-05-08 09:13 | 43.18133 | -82.53382 | 40951 ft | 586 kts | 40° |
| 2026-05-08 09:13 | 43.23836 | -82.45398 | 40954 ft | 588 kts | 40° |
| 2026-05-08 09:14 | 43.29541 | -82.37389 | 40953 ft | 584 kts | 40° |
| 2026-05-08 09:14 | 43.35248 | -82.29355 | 40954 ft | 587 kts | 41° |
| 2026-05-08 09:15 | 43.40885 | -82.21250 | 40951 ft | 590 kts | 45° |
| 2026-05-08 09:15 | 43.45689 | -82.12078 | 40953 ft | 593 kts | 51° |
| 2026-05-08 09:16 | 43.50439 | -82.02751 | 40951 ft | 595 kts | 51° |
| 2026-05-08 09:16 | 43.55156 | -81.93391 | 40951 ft | 592 kts | 51° |
| 2026-05-08 09:17 | 43.59865 | -81.84021 | 40939 ft | 594 kts | 51° |
| 2026-05-08 09:17 | 43.64524 | -81.74634 | 40940 ft | 594 kts | 52° |
| 2026-05-08 09:18 | 43.69171 | -81.65200 | 40944 ft | 591 kts | 52° |
| 2026-05-08 09:18 | 43.73785 | -81.55837 | 40944 ft | 594 kts | 52° |
| 2026-05-08 09:19 | 43.78423 | -81.46430 | 40945 ft | 592 kts | 52° |